Data for 12/11/2016

Time Sea-Level Adjusted Pressure Absolute Pressure Temperature Relative Humidity Dew Point   
(mb) (inHg) (mb) (inHg) (C) (F) (%) (C) (F)
00:05 1012 29.88 841 24.83 -6.7 20 74 -10.6 13
00:10 1012 29.88 841 24.83 -7 19.5 75 -10.6 12.9
00:15 1012 29.88 841 24.83 -7.3 18.9 75 -11 12.2
00:20 1012 29.88 841 24.83 -7.6 18.4 76 -11.1 12
00:25 1012 29.88 841 24.83 -7.7 18.1 75 -11.4 11.5
00:30 1012 29.88 841 24.83 -7.7 18.1 75 -11.5 11.3
00:35 1012 29.88 841 24.83 -7.7 18.1 76 -11.3 11.7
00:40 1012 29.88 841 24.83 -7.5 18.6 74 -11.4 11.6
00:45 1012 29.88 841 24.83 -7.6 18.4 76 -11.1 12
00:50 1012 29.88 841 24.83 -7.7 18.1 75 -11.4 11.5
00:55 1012 29.88 841 24.83 -7.7 18.1 75 -11.4 11.5
01:00 1012 29.88 841 24.83 -7.7 18.1 73 -11.7 11
01:05 1012 29.88 842 24.86 -7.8 17.9 75 -11.5 11.2
01:10 1012 29.88 842 24.86 -8 17.6 75 -11.7 10.9
01:15 1012 29.88 842 24.86 -8.1 17.5 76 -11.7 11
01:20 1012 29.88 842 24.86 -8 17.5 74 -11.9 10.7
01:25 1012 29.88 842 24.86 -8.1 17.5 74 -11.9 10.7
01:30 1013 29.91 842 24.86 -8.1 17.5 73 -12.1 10.3
01:35 1013 29.91 842 24.86 -8.2 17.3 75 -11.8 10.7
01:40 1013 29.91 842 24.86 -7.9 17.7 74 -11.9 10.7
01:45 1013 29.91 842 24.86 -8.2 17.3 74 -12.1 10.2
01:50 1013 29.91 842 24.86 -8.2 17.3 74 -12 10.3
01:55 1013 29.91 842 24.86 -8.2 17.3 74 -12.1 10.3
02:00 1013 29.91 842 24.86 -8.2 17.2 74 -12.1 10.3
02:05 1013 29.91 842 24.86 -8.4 16.9 75 -12.1 10.2
02:10 1013 29.91 842 24.86 -8.7 16.4 75 -12.4 9.7
02:15 1013 29.91 842 24.86 -8.7 16.4 74 -12.5 9.5
02:20 1013 29.91 842 24.86 -8.7 16.4 74 -12.5 9.5
02:25 1013 29.91 842 24.86 -8.7 16.3 74 -12.6 9.3
02:30 1013 29.91 842 24.86 -8.7 16.3 74 -12.6 9.4
02:35 1013 29.91 842 24.86 -8.6 16.6 73 -12.5 9.5
02:40 1013 29.91 842 24.86 -8.5 16.7 73 -12.5 9.5
02:45 1013 29.91 842 24.86 -8.5 16.6 74 -12.4 9.6
02:50 1013 29.91 842 24.86 -8.6 16.6 74 -12.4 9.6
02:55 1013 29.91 842 24.86 -8.6 16.6 74 -12.4 9.7
03:00 1013 29.91 842 24.86 -8.4 16.9 73 -12.4 9.6
03:05 1013 29.91 842 24.86 -8.4 17 73 -12.3 9.8
03:10 1013 29.91 842 24.86 -8.4 16.9 74 -12.2 10
03:15 1013 29.91 842 24.86 -8.6 16.6 76 -12 10.4
03:20 1013 29.91 842 24.86 -8.9 15.9 78 -12.1 10.3
03:25 1013 29.91 842 24.86 -9 15.9 78 -12.1 10.2
03:30 1013 29.91 842 24.86 -8.9 16.1 78 -12 10.5
03:35 1013 29.91 842 24.86 -8.8 16.2 78 -11.9 10.6
03:40 1013 29.91 842 24.86 -8.7 16.3 79 -11.8 10.8
03:45 1013 29.91 842 24.86 -8.7 16.3 79 -11.8 10.7
03:50 1013 29.91 842 24.86 -8.7 16.3 79 -11.8 10.8
03:55 1013 29.91 842 24.86 -8.8 16.2 79 -11.8 10.7
04:00 1013 29.91 842 24.86 -8.7 16.3 78 -11.8 10.7
04:05 1013 29.91 842 24.86 -8.6 16.5 77 -12 10.5
04:10 1013 29.91 842 24.86 -8.5 16.7 77 -11.9 10.6
04:15 1013 29.91 842 24.86 -8.6 16.6 78 -11.7 10.9
04:20 1013 29.91 842 24.86 -8.6 16.5 79 -11.7 11
04:25 1013 29.91 842 24.86 -8.6 16.6 78 -11.8 10.8
04:30 1013 29.91 842 24.86 -8.4 16.9 77 -11.8 10.8
04:35 1013 29.91 843 24.89 -8.2 17.2 74 -12.1 10.3
04:40 1013 29.91 843 24.89 -8 17.7 71 -12.3 9.8
04:45 1013 29.91 843 24.89 -7.8 18 73 -11.8 10.7
04:50 1013 29.91 843 24.89 -7.8 18 73 -11.8 10.7
04:55 1013 29.91 843 24.89 -7.8 18 74 -11.7 11
05:00 1013 29.91 843 24.89 -7.9 17.8 73 -11.9 10.6
05:05 1013 29.91 843 24.89 -8.1 17.4 74 -11.9 10.6
05:10 1013 29.91 843 24.89 -8.3 17.1 75 -11.9 10.5
05:15 1013 29.91 843 24.89 -8.2 17.2 74 -12.1 10.3
05:20 1013 29.91 843 24.89 -8.2 17.2 74 -12 10.4
05:25 1013 29.91 843 24.89 -8.1 17.4 74 -12 10.4
05:30 1013 29.91 843 24.89 -8.1 17.5 75 -11.7 11
05:35 1013 29.91 843 24.89 -7.9 17.8 76 -11.4 11.6
05:40 1014 29.94 843 24.89 -7.9 17.8 76 -11.4 11.5
05:45 1014 29.94 843 24.89 -7.8 17.9 76 -11.4 11.6
05:50 1014 29.94 843 24.89 -7.9 17.9 76 -11.4 11.4
05:55 1014 29.94 843 24.89 -8 17.6 78 -11.2 11.8
06:00 1014 29.94 843 24.89 -8.3 17.1 79 -11.3 11.6
06:05 1014 29.94 843 24.89 -8.3 17.1 79 -11.4 11.5
06:10 1014 29.94 843 24.89 -8.1 17.4 78 -11.3 11.6
06:15 1014 29.94 843 24.89 -8 17.7 77 -11.3 11.6
06:20 1014 29.94 843 24.89 -7.8 18 76 -11.4 11.5
06:25 1014 29.94 843 24.89 -7.7 18.1 74 -11.6 11.2
06:30 1014 29.94 843 24.89 -7.6 18.4 73 -11.6 11.2
06:35 1014 29.94 843 24.89 -7.6 18.3 74 -11.6 11.2
06:40 1014 29.94 843 24.89 -7.6 18.3 74 -11.4 11.4
06:45 1014 29.94 843 24.89 -7.6 18.3 75 -11.4 11.6
06:50 1014 29.94 843 24.89 -7.4 18.7 72 -11.6 11.2
06:55 1014 29.94 843 24.89 -7.1 19.3 71 -11.4 11.4
07:00 1014 29.94 843 24.89 -7 19.3 72 -11.2 11.8
07:05 1014 29.94 843 24.89 -7.2 19.1 72 -11.5 11.3
07:10 1014 29.94 843 24.89 -7.6 18.4 74 -11.5 11.4
07:15 1014 29.94 843 24.89 -7.6 18.3 72 -11.8 10.8
07:20 1014 29.94 843 24.89 -7.3 18.8 72 -11.6 11.1
07:25 1014 29.94 843 24.89 -7.3 18.9 72 -11.5 11.2
07:30 1014 29.94 843 24.89 -7.1 19.2 71 -11.5 11.2
07:35 1014 29.94 843 24.89 -7.1 19.3 70 -11.6 11.2
07:40 1014 29.94 843 24.89 -7 19.4 71 -11.4 11.5
07:45 1014 29.94 843 24.89 -7.2 19.1 71 -11.5 11.3
07:50 1014 29.94 843 24.89 -7.3 19 73 -11.4 11.5
07:55 1014 29.94 843 24.89 -7.4 18.8 73 -11.4 11.5
08:00 1014 29.94 843 24.89 -7.3 18.8 72 -11.5 11.3
08:05 1014 29.94 843 24.89 -7.5 18.5 74 -11.4 11.5
08:10 1014 29.94 843 24.89 -7.6 18.4 74 -11.4 11.4
08:15 1014 29.94 843 24.89 -7.4 18.7 73 -11.5 11.3
08:20 1014 29.94 843 24.89 -7.1 19.3 72 -11.3 11.6
08:25 1014 29.94 843 24.89 -7.1 19.3 73 -11 12.1
08:30 1014 29.94 843 24.89 -7.1 19.3 72 -11.3 11.7
08:35 1014 29.94 843 24.89 -7.3 18.8 73 -11.3 11.6
08:40 1014 29.94 843 24.89 -7.4 18.8 73 -11.5 11.4
08:45 1014 29.94 843 24.89 -7.2 19 71 -11.7 10.9
08:50 1014 29.94 843 24.89 -6.8 19.7 69 -11.7 11
08:55 1014 29.94 843 24.89 -6.6 20.1 70 -11.2 11.9
09:00 1014 29.94 843 24.89 -7 19.5 70 -11.6 11.2
09:05 1014 29.94 843 24.89 -7 19.4 69 -11.7 11
09:10 1014 29.94 843 24.89 -6.7 19.9 69 -11.6 11.2
09:15 1014 29.94 843 24.89 -6.4 20.4 69 -11.2 11.9
09:20 1014 29.94 843 24.89 -6.1 20.9 69 -11 12.2
09:25 1014 29.94 843 24.89 -5.9 21.3 68 -11 12.2
09:30 1014 29.94 843 24.89 -5.7 21.7 66 -11.1 12.1
09:35 1014 29.94 844 24.92 -5.5 22.1 65 -11.1 12
09:40 1014 29.94 844 24.92 -5.2 22.6 61 -11.7 11
09:45 1014 29.94 844 24.92 -4.1 24.6 55 -11.9 10.6
09:50 1014 29.94 844 24.92 -3.7 25.4 51 -12.4 9.7
09:55 1014 29.94 844 24.92 -3.5 25.7 49 -12.8 9
10:00 1014 29.94 844 24.92 -3.6 25.6 52 -12.1 10.3
10:05 1014 29.94 843 24.89 -3.5 25.8 48 -13 8.6
10:10 1014 29.94 843 24.89 -3.3 26 50 -12.4 9.7
10:15 1014 29.94 843 24.89 -3.4 25.8 51 -12.2 10.1
10:20 1014 29.94 843 24.89 -3.4 25.9 53 -11.7 10.9
10:25 1014 29.94 843 24.89 -3.3 26 50 -12.3 9.9
10:30 1014 29.94 843 24.89 -3.1 26.4 49 -12.3 9.9
10:35 1014 29.94 843 24.89 -2.5 27.5 45 -12.9 8.7
10:40 1014 29.94 843 24.89 -2 28.3 45 -12.5 9.6
10:45 1014 29.94 843 24.89 -2 28.5 44 -12.6 9.4
10:50 1014 29.94 843 24.89 -2 28.5 44 -12.7 9.1
10:55 1014 29.94 843 24.89 -1.8 28.8 43 -12.8 8.9
11:00 1014 29.94 843 24.89 -1.5 29.2 43 -12.7 9.2
11:05 1014 29.94 843 24.89 -1.3 29.6 42 -12.5 9.4
11:10 1014 29.94 843 24.89 -1.2 29.8 42 -12.7 9.2
11:15 1014 29.94 843 24.89 -1.1 30 43 -12.1 10.3
11:20 1014 29.94 843 24.89 -1 30.2 43 -12.1 10.2
11:25 1014 29.94 843 24.89 -0.9 30.5 41 -12.5 9.5
11:30 1013 29.91 843 24.89 -1.1 30 42 -12.4 9.7
11:35 1013 29.91 843 24.89 -1.3 29.7 43 -12.5 9.6
11:40 1013 29.91 843 24.89 -1.3 29.7 42 -12.7 9.2
11:45 1013 29.91 842 24.86 -1.4 29.5 42 -12.6 9.3
11:50 1013 29.91 842 24.86 -1.4 29.5 42 -12.7 9.1
11:55 1013 29.91 842 24.86 -1.2 29.8 42 -12.7 9.1
12:00 1013 29.91 842 24.86 -1.2 29.8 42 -12.7 9.2
12:05 1013 29.91 842 24.86 -0.8 30.6 41 -12.6 9.4
12:10 1013 29.91 842 24.86 -0.5 31.1 41 -12.3 9.8
12:15 1013 29.91 842 24.86 0.4 32.7 39 -12.1 10.2
12:20 1013 29.91 842 24.86 0.9 33.7 35 -12.8 9
12:25 1013 29.91 842 24.86 0.7 33.3 38 -12 10.5
12:30 1013 29.91 842 24.86 0.4 32.8 39 -12 10.3
12:35 1013 29.91 842 24.86 1.2 34.2 37 -12 10.3
12:40 1013 29.91 842 24.86 1.3 34.3 37 -11.9 10.5
12:45 1013 29.91 842 24.86 1.1 34 36 -12.5 9.5
12:50 1013 29.91 842 24.86 1.2 34.2 35 -12.6 9.3
12:55 1013 29.91 842 24.86 1.1 33.9 36 -12.5 9.4
13:00 1013 29.91 842 24.86 1 33.7 35 -12.7 9.1
13:05 1013 29.91 842 24.86 1 33.8 37 -12.2 10.1
13:10 1012 29.88 842 24.86 1 33.8 36 -12.4 9.7
13:15 1012 29.88 842 24.86 0.4 32.7 38 -12.2 10
13:20 1012 29.88 842 24.86 -0 32 39 -12.4 9.7
13:25 1012 29.88 842 24.86 -0.2 31.6 39 -12.6 9.3
13:30 1012 29.88 841 24.83 -0.4 31.2 40 -12.4 9.6
13:35 1012 29.88 841 24.83 -0.4 31.3 38 -13.1 8.3
13:40 1012 29.88 841 24.83 -0.6 30.9 39 -12.9 8.9
13:45 1012 29.88 841 24.83 -0.8 30.6 39 -13.2 8.3
13:50 1012 29.88 841 24.83 -0.9 30.4 39 -13 8.5
13:55 1012 29.88 841 24.83 -0.6 30.9 40 -12.7 9.1
14:00 1012 29.88 841 24.83 -0.4 31.2 38 -13.2 8.3
14:05 1012 29.88 841 24.83 -0.3 31.5 38 -13 8.5
14:10 1012 29.88 841 24.83 -0.4 31.3 40 -12.5 9.6
14:15 1012 29.88 841 24.83 -0.6 30.9 40 -12.7 9.1
14:20 1012 29.88 841 24.83 -0.5 31.1 40 -12.7 9.2
14:25 1012 29.88 841 24.83 -0.6 30.9 40 -12.6 9.4
14:30 1012 29.88 841 24.83 -0.5 31 39 -12.7 9.1
14:35 1012 29.88 841 24.83 -0.2 31.7 39 -12.5 9.5
14:40 1012 29.88 841 24.83 -0.2 31.7 40 -12.3 9.8
14:45 1012 29.88 841 24.83 -0.2 31.7 39 -12.5 9.5
14:50 1012 29.88 841 24.83 -0.3 31.5 39 -12.5 9.4
14:55 1012 29.88 841 24.83 -0.4 31.3 41 -12.2 10
15:00 1012 29.88 841 24.83 -0.5 31.1 42 -12 10.4
15:05 1012 29.88 841 24.83 -0.5 31 42 -11.8 10.7
15:10 1012 29.88 841 24.83 -0.6 31 43 -11.7 10.9
15:15 1012 29.88 841 24.83 -0.5 31.1 43 -11.7 11
15:20 1012 29.88 841 24.83 -0.5 31.2 44 -11.3 11.6
15:25 1012 29.88 841 24.83 -0.5 31.2 44 -11.2 11.8
15:30 1012 29.88 841 24.83 -0.3 31.5 44 -11.2 11.8
15:35 1012 29.88 841 24.83 -0.4 31.3 45 -10.9 12.4
15:40 1012 29.88 841 24.83 -0.6 30.9 46 -10.9 12.3
15:45 1012 29.88 841 24.83 -0.8 30.5 46 -11 12.2
15:50 1012 29.88 841 24.83 -0.9 30.4 45 -11.4 11.4
15:55 1012 29.88 841 24.83 -0.6 30.9 43 -11.7 10.9
16:00 1012 29.88 841 24.83 -0.1 31.8 41 -11.9 10.6
16:05 1012 29.88 841 24.83 0.1 32.1 39 -12.2 10
16:10 1012 29.88 841 24.83 -0.1 31.9 41 -11.9 10.6
16:15 1012 29.88 841 24.83 -0.2 31.6 42 -11.5 11.3
16:20 1012 29.88 841 24.83 -0.4 31.3 43 -11.6 11.1
16:25 1012 29.88 841 24.83 -0.5 31.1 43 -11.6 11.1
16:30 1011 29.85 841 24.83 -0.5 31.1 43 -11.7 10.9
16:35 1011 29.85 841 24.83 -0.5 31 43 -11.6 11.2
16:40 1011 29.85 841 24.83 -0.6 30.9 42 -11.9 10.6
16:45 1011 29.85 841 24.83 -0.7 30.7 42 -12 10.3
16:50 1011 29.85 841 24.83 -0.8 30.6 42 -12 10.4
16:55 1011 29.85 841 24.83 -0.9 30.5 43 -12 10.5
17:00 1011 29.85 841 24.83 -0.9 30.4 42 -12.1 10.2
17:05 1011 29.85 841 24.83 -0.9 30.4 41 -12.6 9.3
17:10 1011 29.85 841 24.83 -0.8 30.6 42 -12.2 10.1
17:15 1011 29.85 841 24.83 -0.9 30.4 43 -12 10.4
17:20 1011 29.85 841 24.83 -1.1 30.1 43 -12.1 10.2
17:25 1011 29.85 841 24.83 -1.1 29.9 43 -12.3 9.8
17:30 1011 29.85 841 24.83 -1.2 29.9 43 -12.1 10.2
17:35 1011 29.85 841 24.83 -1.2 29.9 42 -12.6 9.3
17:40 1011 29.85 841 24.83 -1.2 29.9 43 -12.2 10.1
17:45 1011 29.85 841 24.83 -1.3 29.7 43 -12.5 9.5
17:50 1011 29.85 841 24.83 -1.2 29.8 42 -12.7 9.2
17:55 1011 29.85 840 24.81 -1.3 29.6 42 -12.7 9.1
18:00 1011 29.85 840 24.81 -1.3 29.6 42 -12.8 8.9
18:05 1011 29.85 840 24.81 -1.4 29.4 42 -12.8 8.9
18:10 1011 29.85 840 24.81 -1.5 29.3 42 -12.7 9.1
18:15 1011 29.85 840 24.81 -1.7 29 44 -12.4 9.6
18:20 1011 29.85 840 24.81 -1.8 28.8 44 -12.7 9.2
18:25 1011 29.85 840 24.81 -1.8 28.7 43 -12.9 8.7
18:30 1011 29.85 840 24.81 -1.9 28.6 42 -13.1 8.4
18:35 1011 29.85 840 24.81 -2 28.4 42 -13.4 7.9
18:40 1011 29.85 840 24.81 -2.1 28.2 42 -13.4 7.8
18:45 1011 29.85 840 24.81 -2 28.4 41 -13.7 7.3
18:50 1011 29.85 840 24.81 -1.9 28.5 41 -13.4 7.8
18:55 1011 29.85 840 24.81 -2.2 28.1 43 -13.2 8.2
19:00 1011 29.85 840 24.81 -2.3 27.9 42 -13.5 7.7
19:05 1011 29.85 840 24.81 -2.2 28 43 -13.3 8.1
19:10 1011 29.85 840 24.81 -2.2 28 43 -13.3 8.1
19:15 1011 29.85 840 24.81 -2.1 28.3 42 -13.5 7.7
19:20 1010 29.83 840 24.81 -1.8 28.7 41 -13.4 7.8
19:25 1010 29.83 840 24.81 -1.7 28.9 40 -13.5 7.7
19:30 1010 29.83 840 24.81 -1.5 29.3 41 -13.2 8.2
19:35 1010 29.83 840 24.81 -1.4 29.5 41 -13.1 8.4
19:40 1010 29.83 839 24.78 -1.4 29.5 41 -13.1 8.4
19:45 1010 29.83 839 24.78 -1.4 29.5 42 -12.7 9.2
19:50 1010 29.83 839 24.78 -1.4 29.4 43 -12.5 9.5
19:55 1010 29.83 839 24.78 -1.3 29.6 41 -12.9 8.8
20:00 1010 29.83 839 24.78 -1.2 29.8 42 -12.6 9.3
20:05 1010 29.83 839 24.78 -1.4 29.5 42 -12.7 9.1
20:10 1010 29.83 839 24.78 -1.5 29.3 41 -13.2 8.3
20:15 1010 29.83 839 24.78 -1.4 29.5 40 -13.3 8.1
20:20 1010 29.83 839 24.78 -1.4 29.5 41 -12.9 8.8
20:25 1010 29.83 839 24.78 -1.5 29.3 41 -13 8.5
20:30 1010 29.83 839 24.78 -1.5 29.2 42 -12.7 9.1
20:35 1010 29.83 839 24.78 -1.7 28.9 42 -12.9 8.8
20:40 1010 29.83 839 24.78 -1.7 28.9 42 -12.9 8.8
20:45 1010 29.83 839 24.78 -1.6 29.1 43 -12.7 9.1
20:50 1010 29.83 839 24.78 -1.6 29.2 44 -12.5 9.6
20:55 1010 29.83 839 24.78 -1.6 29.2 46 -11.8 10.8
21:00 1010 29.83 839 24.78 -1.6 29.2 46 -11.8 10.8
21:05 1010 29.83 839 24.78 -1.5 29.4 47 -11.5 11.4
21:10 1010 29.83 839 24.78 -1.5 29.3 47 -11.3 11.7
21:15 1010 29.83 839 24.78 -1.5 29.3 47 -11.5 11.3
21:20 1010 29.83 839 24.78 -1.5 29.4 47 -11.4 11.5
21:25 1010 29.83 839 24.78 -1.5 29.4 47 -11.5 11.3
21:30 1010 29.83 839 24.78 -1.5 29.3 46 -11.5 11.2
21:35 1010 29.83 839 24.78 -1.5 29.4 47 -11.4 11.5
21:40 1010 29.83 839 24.78 -1.5 29.3 47 -11.5 11.3
21:45 1010 29.83 839 24.78 -1.6 29.1 48 -11.3 11.6
21:50 1010 29.83 839 24.78 -1.6 29.1 46 -11.8 10.7
21:55 1010 29.83 839 24.78 -1.6 29 46 -11.8 10.8
22:00 1010 29.83 839 24.78 -1.8 28.8 46 -12 10.5
22:05 1010 29.83 839 24.78 -1.7 28.9 45 -12 10.3
22:10 1010 29.83 839 24.78 -1.7 29 45 -12 10.4
22:15 1010 29.83 839 24.78 -1.7 29 45 -12.1 10.2
22:20 1010 29.83 839 24.78 -1.7 28.9 45 -12.1 10.2
22:25 1010 29.83 839 24.78 -1.9 28.6 46 -12.1 10.3
22:30 1010 29.83 839 24.78 -1.9 28.6 42 -13.1 8.5
22:35 1010 29.83 839 24.78 -1.5 29.2 43 -12.6 9.3
22:40 1010 29.83 839 24.78 -1.5 29.2 44 -12.4 9.7
22:45 1010 29.83 839 24.78 -1.6 29.2 42 -12.8 9
22:50 1010 29.83 839 24.78 -1.4 29.4 44 -12.2 10.1
22:55 1010 29.83 839 24.78 -1.4 29.5 44 -12.2 10.1
23:00 1010 29.83 839 24.78 -1.4 29.5 43 -12.5 9.6
23:05 1010 29.83 839 24.78 -1.6 29.2 46 -11.8 10.7
23:10 1010 29.83 839 24.78 -1.7 28.9 45 -12.3 9.9
23:15 1010 29.83 839 24.78 -1.7 29 45 -12.2 10
23:20 1010 29.83 839 24.78 -1.6 29.1 43 -12.6 9.4
23:25 1010 29.83 839 24.78 -1.3 29.6 42 -12.6 9.3
23:30 1010 29.83 839 24.78 -1.3 29.6 43 -12.5 9.5
23:35 1010 29.83 839 24.78 -1.5 29.4 44 -12.1 10.2
23:40 1010 29.83 839 24.78 -1.5 29.2 43 -12.6 9.2
23:45 1010 29.83 839 24.78 -1.4 29.5 42 -12.7 9.2
23:50 1010 29.83 839 24.78 -1.5 29.4 46 -11.8 10.8
23:55 1010 29.83 839 24.78 -1.5 29.3 47 -11.4 11.4
24:00 1010 29.83 839 24.78 -1.6 29.1 49 -11.1 12